This is the latest recevied weather packets stored in our database for station/object N7CW. If no packets are shown the sender has not sent any weather packets the latest 10 day(s).
| Time | Temp. | Humidity | Pressure | Rain* | Wind** | Luminosity | Snow |
|---|---|---|---|---|---|---|---|
| 1777397188 | 13.89° C | 30% | 1019.8 hPa | 0 mm | - | 717 W/m² | - |
| 1777396886 | 14.44° C | 30% | 1019.4 hPa | 0 mm | - | 707 W/m² | - |
| 1777396279 | 14.44° C | 30% | 1019.7 hPa | 0 mm | - | 686 W/m² | - |
| 1777395675 | 14.44° C | 29% | 1019.5 hPa | 0 mm | - | 664 W/m² | - |
| 1777395372 | 12.78° C | 32% | 1019.9 hPa | 0 mm | - | 652 W/m² | - |
| 1777394766 | 13.33° C | 31% | 1019.7 hPa | 0 mm | - | 628 W/m² | - |
| 1777394462 | 12.78° C | 31% | 1019.4 hPa | 0 mm | - | 615 W/m² | - |
| 1777394158 | 13.33° C | 32% | 1019.5 hPa | 0 mm | - | 601 W/m² | - |
| 1777393553 | 11.67° C | 34% | 1019.8 hPa | 0 mm | - | 572 W/m² | - |
| 1777393249 | 11.67° C | 35% | 1019.5 hPa | 0 mm | - | 558 W/m² | - |
| 1777392338 | 11.67° C | 36% | 1019.5 hPa | 0 mm | - | 516 W/m² | - |
| 1777391733 | 12.22° C | 35% | 1019.5 hPa | 0 mm | - | 488 W/m² | - |
| 1777391430 | 12.22° C | 34% | 1019.5 hPa | 0 mm | - | 463 W/m² | - |
| 1777390520 | 11.67° C | 35% | 1019.4 hPa | 0 mm | - | 428 W/m² | - |
| 1777390216 | 11.67° C | 37% | 1019.5 hPa | 0 mm | - | 414 W/m² | - |
| 1777389912 | 11.11° C | 37% | 1019.5 hPa | 0 mm | - | 413 W/m² | - |
| 1777388091 | 10° C | 41% | 1019.3 hPa | 0 mm | - | 291 W/m² | - |
| 1777387484 | 10° C | 41% | 1019.1 hPa | 0 mm | - | 247 W/m² | - |
| 1777386875 | 8.89° C | 45% | 1019.1 hPa | 0 mm | - | 212 W/m² | - |
| 1777386572 | 8.89° C | 47% | 1019.1 hPa | 0 mm | - | 196 W/m² | - |
| 1777385967 | 7.78° C | 49% | 1018.7 hPa | 0 mm | - | 151 W/m² | - |
| 1777385662 | 7.22° C | 49% | 1018.8 hPa | 0 mm | - | 144 W/m² | - |
| 1777385360 | 6.67° C | 51% | 1019 hPa | 0 mm | - | 139 W/m² | - |
| 1777385057 | 6.11° C | 52% | 1018.7 hPa | 0 mm | - | 121 W/m² | - |
| 1777383536 | 2.22° C | 62% | 1018.6 hPa | 0 mm | - | 52 W/m² | - |
* Rain latest hour (hover to see other rain measurements)
** Current wind speed in m/s (hover to see current wind gust speed)